createdAt,value
2018-05-12T00:00:13.069Z,84.16
2018-05-12T00:01:13.069Z,83.87
2018-05-12T00:02:13.112Z,83.82
2018-05-12T00:03:13.069Z,84.16
2018-05-12T00:04:13.072Z,84.26
2018-05-12T00:05:13.074Z,84.35
2018-05-12T00:06:13.080Z,84.06
2018-05-12T00:07:13.078Z,84.64
2018-05-12T00:08:13.091Z,84.26
2018-05-12T00:09:14.036Z,84.35
2018-05-12T00:10:13.078Z,84.06
2018-05-12T00:11:13.082Z,84.68
2018-05-12T00:12:13.083Z,84.06
2018-05-12T00:13:13.087Z,84.64
2018-05-12T00:14:13.083Z,84.64
2018-05-12T00:15:13.087Z,84.68
2018-05-12T00:16:13.088Z,84.55
2018-05-12T00:17:13.086Z,84.45
2018-05-12T00:18:13.112Z,84.45
2018-05-12T00:19:13.090Z,84.45
2018-05-12T00:20:13.089Z,84.83
2018-05-12T00:21:13.095Z,84.55
2018-05-12T00:22:13.093Z,84.92
2018-05-12T00:23:13.108Z,84.58
2018-05-12T00:24:13.094Z,84.74
2018-05-12T00:25:13.096Z,84.58
2018-05-12T00:26:13.112Z,84.39
2018-05-12T00:27:13.117Z,84.55
2018-05-12T00:28:13.116Z,84.74
2018-05-12T00:29:13.103Z,84.49
2018-05-12T00:30:14.404Z,84.55
2018-05-12T00:31:13.102Z,84.74
2018-05-12T00:32:13.103Z,84.58
2018-05-12T00:33:13.106Z,84.58
2018-05-12T00:34:13.108Z,84.49
2018-05-12T00:35:13.108Z,84.20
2018-05-12T00:36:13.115Z,84.39
2018-05-12T00:37:13.113Z,84.39
2018-05-12T00:38:13.111Z,84.58
2018-05-12T00:39:13.120Z,84.39
2018-05-12T00:40:13.114Z,84.58
2018-05-12T00:41:13.119Z,84.58
2018-05-12T00:42:13.116Z,84.58
2018-05-12T00:43:13.116Z,84.68
2018-05-12T00:44:13.121Z,84.49
2018-05-12T00:45:13.120Z,84.68
2018-05-12T00:46:13.120Z,85.16
2018-05-12T00:47:13.121Z,84.78
2018-05-12T00:48:13.123Z,84.97
2018-05-12T00:49:13.130Z,84.58
2018-05-12T00:50:13.137Z,84.97
2018-05-12T00:51:13.154Z,84.78
2018-05-12T00:52:13.128Z,84.78
2018-05-12T00:53:13.131Z,84.39
2018-05-12T00:54:13.131Z,84.68
2018-05-12T00:55:13.179Z,84.68
2018-05-12T00:56:13.133Z,84.58
2018-05-12T00:57:13.134Z,85.06
2018-05-12T00:58:13.136Z,85.06
2018-05-12T00:59:13.135Z,85.16
2018-05-12T01:00:13.137Z,85.45
2018-05-12T01:01:13.139Z,85.16
2018-05-12T01:02:13.142Z,85.35
2018-05-12T01:03:13.141Z,85.35
2018-05-12T01:04:13.142Z,85.74
2018-05-12T01:05:13.143Z,85.54
2018-05-12T01:06:13.148Z,85.74
2018-05-12T01:07:13.147Z,86.02
2018-05-12T01:08:13.148Z,85.93
2018-05-12T01:09:13.149Z,86.31
2018-05-12T01:10:13.155Z,86.60
2018-05-12T01:11:13.164Z,86.21
2018-05-12T01:12:13.150Z,86.31
2018-05-12T01:13:13.216Z,86.60
2018-05-12T01:14:13.152Z,86.60
2018-05-12T01:15:13.155Z,86.31
2018-05-12T01:16:13.156Z,86.79
2018-05-12T01:17:13.157Z,86.60
2018-05-12T01:18:13.157Z,86.60
2018-05-12T01:19:13.157Z,86.60
2018-05-12T01:20:13.160Z,86.12
2018-05-12T01:21:13.162Z,86.31
2018-05-12T01:22:13.171Z,86.31
2018-05-12T01:23:13.164Z,86.31
2018-05-12T01:24:13.163Z,86.31
2018-05-12T01:25:13.256Z,86.41
2018-05-12T01:26:13.166Z,86.50
2018-05-12T01:27:13.167Z,86.21
2018-05-12T01:28:13.172Z,86.31
2018-05-12T01:29:13.166Z,87.08
2018-05-12T01:30:13.169Z,86.69
2018-05-12T01:31:13.170Z,86.79
2018-05-12T01:32:13.170Z,86.79
2018-05-12T01:33:13.174Z,86.94
2018-05-12T01:34:13.171Z,87.23
2018-05-12T01:35:13.173Z,86.17
2018-05-12T01:36:13.173Z,86.21
2018-05-12T01:37:13.174Z,86.41
2018-05-12T01:38:13.177Z,86.31
2018-05-12T01:39:13.184Z,86.12
2018-05-12T01:40:13.178Z,86.08
2018-05-12T01:41:13.340Z,85.98
2018-05-12T01:42:13.179Z,85.88
2018-05-12T01:43:13.178Z,86.27
2018-05-12T01:44:13.180Z,86.36
2018-05-12T01:45:13.180Z,86.08
2018-05-12T01:46:13.209Z,86.27
2018-05-12T01:47:13.182Z,86.55
2018-05-12T01:48:13.185Z,86.08
2018-05-12T01:49:13.186Z,86.27
2018-05-12T01:50:13.186Z,86.50
2018-05-12T01:51:13.185Z,86.41
2018-05-12T01:52:13.188Z,86.17
2018-05-12T01:53:13.193Z,86.17
2018-05-12T01:54:13.207Z,86.27
2018-05-12T01:55:13.191Z,86.36
2018-05-12T01:56:13.195Z,86.55
2018-05-12T01:57:13.194Z,86.55
2018-05-12T01:58:13.194Z,86.08
2018-05-12T01:59:13.195Z,86.27
2018-05-12T02:00:13.199Z,86.17
2018-05-12T02:01:13.197Z,86.36
2018-05-12T02:02:13.199Z,86.46
2018-05-12T02:03:13.239Z,86.36
2018-05-12T02:04:13.202Z,86.27
2018-05-12T02:05:13.202Z,86.27
2018-05-12T02:06:13.207Z,87.03
2018-05-12T02:07:13.205Z,87.03
2018-05-12T02:08:13.207Z,86.74
2018-05-12T02:09:13.206Z,86.84
2018-05-12T02:10:13.219Z,87.03
2018-05-12T02:11:13.207Z,86.94
2018-05-12T02:12:13.803Z,87.13
2018-05-12T02:13:13.210Z,86.94
2018-05-12T02:14:13.215Z,87.03
2018-05-12T02:15:13.211Z,87.61
2018-05-12T02:16:13.213Z,86.65
2018-05-12T02:17:13.215Z,87.41
2018-05-12T02:18:13.215Z,87.03
2018-05-12T02:19:13.215Z,87.13
2018-05-12T02:20:13.224Z,87.23
2018-05-12T02:21:13.219Z,87.13
2018-05-12T02:22:13.220Z,87.03
2018-05-12T02:23:13.221Z,87.41
2018-05-12T02:24:13.222Z,87.03
2018-05-12T02:25:13.223Z,87.32
2018-05-12T02:26:13.224Z,87.13
2018-05-12T02:27:13.225Z,87.61
2018-05-12T02:28:13.230Z,87.23
2018-05-12T02:29:13.228Z,86.74
2018-05-12T02:30:13.231Z,87.23
2018-05-12T02:31:13.229Z,87.13
2018-05-12T02:32:13.231Z,87.41
2018-05-12T02:33:13.234Z,87.03
2018-05-12T02:34:13.237Z,87.03
2018-05-12T02:35:13.233Z,86.94
2018-05-12T02:36:13.234Z,87.61
2018-05-12T02:37:13.239Z,87.32
2018-05-12T02:38:13.236Z,88.76
2018-05-12T02:39:13.240Z,87.90
2018-05-12T02:40:13.240Z,88.09
2018-05-12T02:41:13.241Z,88.56
2018-05-12T02:42:13.246Z,88.28
2018-05-12T02:43:14.239Z,89.04
2018-05-12T02:44:13.244Z,88.56
2018-05-12T02:45:13.243Z,88.76
2018-05-12T02:46:13.246Z,89.43
2018-05-12T02:47:13.254Z,89.23
2018-05-12T02:48:13.246Z,89.14
2018-05-12T02:49:13.256Z,89.62
2018-05-12T02:50:13.253Z,89.23
2018-05-12T02:51:13.247Z,89.23
2018-05-12T02:52:13.249Z,89.62
2018-05-12T02:53:13.252Z,89.43
2018-05-12T02:54:13.251Z,89.72
2018-05-12T02:55:13.255Z,89.43
2018-05-12T02:56:13.253Z,88.47
2018-05-12T02:57:13.261Z,88.18
2018-05-12T02:58:13.255Z,88.28
2018-05-12T02:59:13.254Z,88.56
2018-05-12T03:00:13.254Z,88.95
2018-05-12T03:01:13.255Z,88.85
2018-05-12T03:02:13.257Z,89.04
2018-05-12T03:03:13.256Z,88.85
2018-05-12T03:04:13.258Z,89.38
2018-05-12T03:05:13.260Z,89.38
2018-05-12T03:06:13.261Z,89.09
2018-05-12T03:07:13.260Z,89.48
2018-05-12T03:08:13.260Z,89.29
2018-05-12T03:09:13.275Z,89.43
2018-05-12T03:10:13.263Z,89.23
2018-05-12T03:11:13.263Z,89.38
2018-05-12T03:12:13.264Z,89.67
2018-05-12T03:13:13.268Z,89.38
2018-05-12T03:14:13.270Z,89.38
2018-05-12T03:15:13.268Z,89.95
2018-05-12T03:16:13.265Z,89.90
2018-05-12T03:17:13.268Z,89.76
2018-05-12T03:18:34.278Z,89.67
2018-05-12T03:19:13.268Z,89.76
2018-05-12T03:20:13.270Z,89.90
2018-05-12T03:21:13.277Z,89.67
2018-05-12T03:22:13.274Z,89.76
2018-05-12T03:23:13.278Z,89.76
2018-05-12T03:24:13.273Z,89.76
2018-05-12T03:25:14.945Z,89.67
2018-05-12T03:26:13.275Z,89.67
2018-05-12T03:27:13.274Z,89.67
2018-05-12T03:28:13.277Z,89.48
2018-05-12T03:29:13.276Z,89.86
2018-05-12T03:30:13.281Z,89.67
2018-05-12T03:31:13.279Z,90.05
2018-05-12T03:32:13.278Z,89.86
2018-05-12T03:33:13.283Z,89.86
2018-05-12T03:34:13.280Z,89.86
2018-05-12T03:35:13.282Z,90.05
2018-05-12T03:36:13.280Z,89.86
2018-05-12T03:37:13.281Z,89.95
2018-05-12T03:38:13.283Z,90.24
2018-05-12T03:39:13.282Z,90.24
2018-05-12T03:40:13.283Z,90.34
2018-05-12T03:41:13.284Z,90.44
2018-05-12T03:42:13.284Z,90.82
2018-05-12T03:43:13.288Z,90.63
2018-05-12T03:44:13.288Z,90.34
2018-05-12T03:45:13.287Z,90.72
2018-05-12T03:46:13.288Z,90.53
2018-05-12T03:47:13.286Z,90.24
2018-05-12T03:48:13.288Z,90.63
2018-05-12T03:49:13.289Z,90.82
2018-05-12T03:50:13.291Z,90.34
2018-05-12T03:51:13.292Z,90.63
2018-05-12T03:52:13.291Z,90.63
2018-05-12T03:53:13.292Z,90.77
2018-05-12T03:54:13.291Z,90.96
2018-05-12T03:55:13.293Z,91.44
2018-05-12T03:56:13.294Z,90.48
2018-05-12T03:57:13.293Z,90.96
2018-05-12T03:58:13.296Z,91.25
2018-05-12T03:59:13.293Z,91.73
2018-05-12T04:00:13.297Z,90.67
2018-05-12T04:01:13.296Z,90.67
2018-05-12T04:02:13.295Z,90.96
2018-05-12T04:03:13.294Z,90.96
2018-05-12T04:04:13.296Z,91.16
2018-05-12T04:05:13.298Z,90.77
2018-05-12T04:06:13.296Z,91.25
2018-05-12T04:07:13.295Z,90.96
2018-05-12T04:08:13.297Z,90.96
2018-05-12T04:09:13.297Z,90.96
2018-05-12T04:10:13.298Z,91.16
2018-05-12T04:11:13.298Z,90.87
2018-05-12T04:12:13.302Z,91.16
2018-05-12T04:13:13.299Z,90.77
2018-05-12T04:14:13.300Z,91.11
2018-05-12T04:15:13.572Z,91.16
2018-05-12T04:16:13.300Z,91.06
2018-05-12T04:17:13.300Z,91.16
2018-05-12T04:18:13.303Z,90.77
2018-05-12T04:19:13.302Z,90.91
2018-05-12T04:20:13.303Z,91.20
2018-05-12T04:21:13.306Z,90.67
2018-05-12T04:22:13.303Z,90.67
2018-05-12T04:23:13.304Z,90.39
2018-05-12T04:24:13.303Z,90.82
2018-05-12T04:25:13.305Z,90.44
2018-05-12T04:26:13.306Z,90.72
2018-05-12T04:27:13.307Z,89.58
2018-05-12T04:28:13.304Z,90.44
2018-05-12T04:29:13.306Z,90.15
2018-05-12T04:30:13.307Z,90.34
2018-05-12T04:31:13.311Z,90.24
2018-05-12T04:32:13.309Z,90.24
2018-05-12T04:33:13.311Z,90.53
2018-05-12T04:34:13.310Z,90.63
2018-05-12T04:35:13.309Z,90.24
2018-05-12T04:36:13.314Z,90.44
2018-05-12T04:37:13.313Z,90.24
2018-05-12T04:38:13.313Z,90.24
2018-05-12T04:39:13.314Z,90.44
2018-05-12T04:40:13.313Z,89.86
2018-05-12T04:41:13.332Z,89.95
2018-05-12T04:42:13.315Z,90.05
2018-05-12T04:43:13.321Z,90.15
2018-05-12T04:44:13.315Z,90.53
2018-05-12T04:45:13.322Z,89.95
2018-05-12T04:46:14.020Z,89.86
2018-05-12T04:47:13.319Z,90.24
2018-05-12T04:48:13.322Z,90.24
2018-05-12T04:49:13.320Z,90.34
2018-05-12T04:50:13.321Z,90.44
2018-05-12T04:51:13.321Z,90.34
2018-05-12T04:52:13.321Z,90.34
2018-05-12T04:53:13.323Z,90.44
2018-05-12T04:54:13.399Z,90.34
2018-05-12T04:55:13.325Z,90.05
2018-05-12T04:56:13.324Z,89.90
2018-05-12T04:57:13.326Z,89.67
2018-05-12T04:58:13.326Z,90.05
2018-05-12T04:59:13.326Z,89.62
2018-05-12T05:00:13.329Z,90.00
2018-05-12T05:01:13.328Z,90.86
2018-05-12T05:02:13.330Z,90.86
2018-05-12T05:03:13.335Z,90.29
2018-05-12T05:04:13.386Z,90.86
2018-05-12T05:05:13.334Z,90.58
2018-05-12T05:06:13.336Z,90.58
2018-05-12T05:07:13.333Z,90.48
2018-05-12T05:08:13.370Z,90.58
2018-05-12T05:09:13.345Z,90.29
2018-05-12T05:10:13.336Z,90.29
2018-05-12T05:11:13.339Z,91.05
2018-05-12T05:12:13.338Z,90.86
2018-05-12T05:13:13.339Z,90.86
2018-05-12T05:14:13.348Z,90.96
2018-05-12T05:15:13.419Z,90.96
2018-05-12T05:16:13.340Z,90.96
2018-05-12T05:17:13.341Z,90.86
2018-05-12T05:18:13.343Z,90.86
2018-05-12T05:19:13.342Z,90.96
2018-05-12T05:20:13.345Z,91.05
2018-05-12T05:21:13.374Z,90.86
2018-05-12T05:22:13.351Z,90.86
2018-05-12T05:23:13.354Z,90.96
2018-05-12T05:24:13.346Z,90.29
2018-05-12T05:25:13.348Z,90.29
2018-05-12T05:26:13.349Z,91.05
2018-05-12T05:27:13.349Z,90.86
2018-05-12T05:28:13.351Z,90.29
2018-05-12T05:29:13.351Z,90.86
2018-05-12T05:30:13.353Z,90.67
2018-05-12T05:31:13.353Z,90.58
2018-05-12T05:32:13.353Z,90.19
2018-05-12T05:33:13.355Z,90.86
2018-05-12T05:34:13.356Z,90.77
2018-05-12T05:35:13.376Z,90.72
2018-05-12T05:36:13.357Z,90.91
2018-05-12T05:37:13.358Z,90.62
2018-05-12T05:38:13.359Z,90.62
2018-05-12T05:39:13.361Z,90.72
2018-05-12T05:40:13.361Z,90.53
2018-05-12T05:41:13.364Z,90.33
2018-05-12T05:42:13.363Z,90.33
2018-05-12T05:43:13.362Z,90.23
2018-05-12T05:44:13.367Z,90.43
2018-05-12T05:45:13.373Z,90.48
2018-05-12T05:46:13.373Z,90.67
2018-05-12T05:47:13.369Z,90.58
2018-05-12T05:48:13.368Z,90.33
2018-05-12T05:49:13.369Z,90.81
2018-05-12T05:50:13.380Z,90.14
2018-05-12T05:51:13.369Z,90.91
2018-05-12T05:52:13.370Z,90.53
2018-05-12T05:53:13.373Z,90.33
2018-05-12T05:54:13.375Z,90.33
2018-05-12T05:55:13.378Z,90.53
2018-05-12T05:56:13.374Z,90.33
2018-05-12T05:57:13.376Z,89.95
2018-05-12T05:58:13.381Z,89.95
2018-05-12T05:59:13.378Z,89.86
2018-05-12T06:00:13.378Z,89.57
2018-05-12T06:01:13.380Z,89.57
2018-05-12T06:02:13.381Z,89.95
2018-05-12T06:03:13.381Z,89.47
2018-05-12T06:04:13.400Z,89.37
2018-05-12T06:05:13.382Z,89.28
2018-05-12T06:06:13.388Z,89.09
2018-05-12T06:07:13.501Z,89.18
2018-05-12T06:08:13.387Z,89.18
2018-05-12T06:09:13.388Z,88.80
2018-05-12T06:10:13.389Z,88.99
2018-05-12T06:11:13.389Z,88.99
2018-05-12T06:12:13.464Z,89.09
2018-05-12T06:13:13.411Z,88.61
2018-05-12T06:14:13.401Z,88.80
2018-05-12T06:15:13.394Z,88.37
2018-05-12T06:16:13.394Z,88.27
2018-05-12T06:17:13.397Z,88.37
2018-05-12T06:18:13.419Z,88.46
2018-05-12T06:19:13.396Z,88.37
2018-05-12T06:20:13.399Z,88.37
2018-05-12T06:21:13.400Z,88.17
2018-05-12T06:22:13.402Z,88.17
2018-05-12T06:23:13.403Z,88.37
2018-05-12T06:24:13.403Z,88.46
2018-05-12T06:25:13.406Z,88.65
2018-05-12T06:26:13.411Z,88.84
2018-05-12T06:27:13.407Z,88.75
2018-05-12T06:28:13.410Z,88.17
2018-05-12T06:29:13.408Z,88.65
2018-05-12T06:30:13.410Z,87.88
2018-05-12T06:31:13.412Z,87.12
2018-05-12T06:32:13.415Z,86.30
2018-05-12T06:33:13.415Z,86.21
2018-05-12T06:34:13.418Z,86.30
2018-05-12T06:35:13.420Z,86.21
2018-05-12T06:36:13.419Z,85.63
2018-05-12T06:37:13.422Z,85.72
2018-05-12T06:38:13.423Z,85.44
2018-05-12T06:39:13.423Z,85.05
2018-05-12T06:40:13.426Z,84.91
2018-05-12T06:41:13.427Z,84.71
2018-05-12T06:42:13.430Z,84.91
2018-05-12T06:43:13.442Z,84.67
2018-05-12T06:44:13.432Z,84.86
2018-05-12T06:45:13.433Z,84.33
2018-05-12T06:46:13.436Z,84.52
2018-05-12T06:47:13.437Z,84.81
2018-05-12T06:48:13.440Z,84.14
2018-05-12T06:49:13.556Z,84.14
2018-05-12T06:50:13.447Z,83.85
2018-05-12T06:51:13.445Z,84.14
2018-05-12T06:52:13.448Z,84.04
2018-05-12T06:53:13.455Z,83.37
2018-05-12T06:54:13.452Z,82.98
2018-05-12T06:55:13.456Z,82.79
2018-05-12T06:56:13.454Z,82.45
2018-05-12T06:57:13.456Z,82.45
2018-05-12T06:58:13.464Z,82.35
2018-05-12T06:59:13.463Z,82.26
2018-05-12T07:00:13.463Z,81.97
2018-05-12T07:01:13.466Z,82.93
2018-05-12T07:02:13.471Z,82.93
2018-05-12T07:03:13.469Z,82.74
2018-05-12T07:04:13.471Z,82.74
2018-05-12T07:05:13.473Z,82.93
2018-05-12T07:06:13.477Z,82.54
2018-05-12T07:07:13.479Z,82.45
2018-05-12T07:08:13.480Z,82.64
2018-05-12T07:09:13.484Z,83.12
2018-05-12T07:10:13.486Z,82.84
2018-05-12T07:11:13.487Z,82.54
2018-05-12T07:12:13.548Z,82.64
2018-05-12T07:13:13.493Z,82.45
2018-05-12T07:14:13.498Z,82.45
2018-05-12T07:15:13.497Z,82.16
2018-05-12T07:16:13.498Z,82.26
2018-05-12T07:17:13.500Z,82.07
2018-05-12T07:18:13.503Z,82.16
2018-05-12T07:19:13.508Z,82.74
2018-05-12T07:20:13.963Z,82.84
2018-05-12T07:21:13.512Z,82.74
2018-05-12T07:22:13.512Z,82.74
2018-05-12T07:23:13.520Z,81.97
2018-05-12T07:24:13.526Z,82.54
2018-05-12T07:25:13.518Z,82.26
2018-05-12T07:26:13.522Z,82.64
2018-05-12T07:27:13.523Z,82.64
2018-05-12T07:28:13.524Z,82.84
2018-05-12T07:29:13.526Z,82.74
2018-05-12T07:30:13.533Z,82.54
2018-05-12T07:31:13.530Z,82.35
2018-05-12T07:32:13.545Z,83.22
2018-05-12T07:33:13.534Z,83.12
2018-05-12T07:34:13.537Z,83.12
2018-05-12T07:35:13.539Z,82.93
2018-05-12T07:36:13.543Z,82.54
2018-05-12T07:37:13.545Z,82.84
2018-05-12T07:38:13.546Z,82.93
2018-05-12T07:39:13.548Z,82.93
2018-05-12T07:40:13.550Z,83.60
2018-05-12T07:41:13.554Z,83.41
2018-05-12T07:42:13.555Z,83.98
2018-05-12T07:43:13.556Z,83.60
2018-05-12T07:44:13.559Z,84.08
2018-05-12T07:45:13.560Z,83.98
2018-05-12T07:46:13.611Z,84.18
2018-05-12T07:47:13.564Z,83.70
2018-05-12T07:48:13.569Z,84.18
2018-05-12T07:49:13.569Z,84.18
2018-05-12T07:50:13.574Z,84.08
2018-05-12T07:51:14.338Z,83.98
2018-05-12T07:52:13.575Z,84.18
2018-05-12T07:53:13.577Z,83.98
2018-05-12T07:54:13.579Z,83.89
2018-05-12T07:55:13.581Z,84.08
2018-05-12T07:56:13.583Z,83.22
2018-05-12T07:57:13.584Z,83.41
2018-05-12T07:58:13.592Z,83.64
2018-05-12T07:59:13.591Z,83.36
2018-05-12T08:00:13.591Z,83.07
2018-05-12T08:01:13.594Z,83.45
2018-05-12T08:02:13.599Z,83.26
2018-05-12T08:03:13.597Z,83.07
2018-05-12T08:04:13.600Z,83.26
2018-05-12T08:05:13.604Z,82.78
2018-05-12T08:06:13.606Z,82.10
2018-05-12T08:07:13.607Z,82.87
2018-05-12T08:08:13.608Z,82.20
2018-05-12T08:09:13.629Z,81.86
2018-05-12T08:10:13.614Z,81.76
2018-05-12T08:11:13.615Z,82.05
2018-05-12T08:12:13.619Z,81.67
2018-05-12T08:13:13.621Z,81.76
2018-05-12T08:14:13.624Z,81.19
2018-05-12T08:15:13.625Z,81.19
2018-05-12T08:16:13.627Z,81.38
2018-05-12T08:17:13.630Z,80.99
2018-05-12T08:18:13.632Z,80.99
2018-05-12T08:19:13.638Z,80.71
2018-05-12T08:20:13.637Z,80.99
2018-05-12T08:21:13.640Z,80.42
2018-05-12T08:22:13.647Z,80.65
2018-05-12T08:23:13.645Z,80.80
2018-05-12T08:24:13.649Z,80.55
2018-05-12T08:25:13.686Z,80.17
2018-05-12T08:26:13.669Z,79.98
2018-05-12T08:27:13.654Z,80.07
2018-05-12T08:28:13.657Z,80.36
2018-05-12T08:29:13.664Z,80.55
2018-05-12T08:30:13.663Z,80.17
2018-05-12T08:31:13.666Z,79.98
2018-05-12T08:32:13.696Z,79.88
2018-05-12T08:33:13.687Z,80.17
2018-05-12T08:34:13.676Z,79.98
2018-05-12T08:35:13.676Z,80.60
2018-05-12T08:36:13.683Z,80.36
2018-05-12T08:37:13.682Z,80.27
2018-05-12T08:38:13.691Z,80.02
2018-05-12T08:39:13.693Z,79.92
2018-05-12T08:40:13.693Z,79.63
2018-05-12T08:41:13.701Z,79.73
2018-05-12T08:42:13.703Z,79.92
2018-05-12T08:43:13.700Z,79.28
2018-05-12T08:44:13.702Z,75.61
2018-05-12T08:45:13.706Z,73.50
2018-05-12T08:46:13.720Z,69.71
2018-05-12T08:47:13.713Z,66.91
2018-05-12T08:48:13.784Z,63.01
2018-05-12T08:49:13.723Z,61.43
2018-05-12T08:50:13.729Z,58.36
2018-05-12T08:51:13.733Z,56.45
2018-05-12T08:52:13.735Z,55.53
2018-05-12T08:53:13.787Z,54.58
2018-05-12T08:54:13.747Z,53.16
2018-05-12T08:55:13.797Z,51.92
2018-05-12T08:56:13.769Z,50.97
2018-05-12T08:57:13.766Z,50.31
2018-05-12T08:58:13.771Z,47.83
2018-05-12T08:59:13.777Z,47.46
2018-05-12T09:00:13.784Z,46.30
2018-05-12T09:01:13.799Z,45.92
2018-05-12T09:02:13.800Z,45.17
2018-05-12T09:03:13.808Z,44.48
2018-05-12T09:04:13.815Z,44.07
2018-05-12T09:05:13.823Z,44.27
2018-05-12T09:06:13.834Z,44.29
2018-05-12T09:07:13.868Z,42.58
2018-05-12T09:08:13.880Z,42.19
2018-05-12T09:09:13.857Z,42.01
2018-05-12T09:10:13.870Z,41.15
2018-05-12T09:11:13.872Z,39.90
2018-05-12T09:12:13.887Z,39.43
2018-05-12T09:13:13.892Z,39.04
2018-05-12T09:14:13.902Z,38.76
2018-05-12T09:15:13.912Z,37.88
2018-05-12T09:16:13.922Z,37.51
2018-05-12T09:17:13.930Z,37.21
2018-05-12T09:18:13.943Z,37.04
2018-05-12T09:19:14.032Z,36.45
2018-05-12T09:20:13.963Z,36.63
2018-05-12T09:21:13.978Z,36.72
2018-05-12T09:22:13.988Z,37.31
2018-05-12T09:23:13.993Z,36.84
2018-05-12T09:24:14.012Z,36.35
2018-05-12T09:25:14.013Z,36.43
2018-05-12T09:26:14.036Z,37.10
2018-05-12T09:27:14.036Z,37.27
2018-05-12T09:28:14.048Z,37.57
2018-05-12T09:29:14.055Z,37.57
2018-05-12T09:30:14.066Z,37.00
2018-05-12T09:31:14.076Z,37.67
2018-05-12T09:32:14.091Z,37.29
2018-05-12T09:33:14.131Z,37.39
2018-05-12T09:34:14.115Z,37.00
2018-05-12T09:35:14.130Z,37.12
2018-05-12T09:36:14.136Z,36.45
2018-05-12T09:37:14.147Z,35.97
2018-05-12T09:38:14.164Z,35.31
2018-05-12T09:39:14.173Z,34.52
2018-05-12T09:40:14.177Z,35.19
2018-05-12T09:41:14.194Z,35.02
2018-05-12T09:42:14.254Z,34.34
2018-05-12T09:43:14.214Z,34.41
2018-05-12T09:44:14.223Z,36.14
2018-05-12T09:45:14.232Z,37.00
2018-05-12T09:46:14.251Z,37.37
2018-05-12T09:47:14.260Z,37.08
2018-05-12T09:48:14.265Z,37.75
2018-05-12T09:49:14.284Z,38.22
2018-05-12T09:50:14.295Z,39.28
2018-05-12T09:51:14.312Z,40.70
2018-05-12T09:52:14.351Z,41.56
2018-05-12T09:53:14.325Z,42.10
2018-05-12T09:54:14.334Z,42.79
2018-05-12T09:55:14.342Z,43.84
2018-05-12T09:56:14.355Z,43.93
2018-05-12T09:57:14.363Z,44.10
2018-05-12T09:58:14.375Z,44.96
2018-05-12T09:59:14.386Z,45.45
2018-05-12T10:00:14.393Z,46.01
2018-05-12T10:01:14.405Z,46.59
2018-05-12T10:02:14.503Z,47.34
2018-05-12T10:03:14.429Z,47.52
2018-05-12T10:04:14.438Z,47.81
2018-05-12T10:05:14.442Z,47.91
2018-05-12T10:06:14.455Z,48.20
2018-05-12T10:07:14.457Z,48.49
2018-05-12T10:08:14.474Z,48.97
2018-05-12T10:09:14.481Z,49.82
2018-05-12T10:10:14.481Z,50.19
2018-05-12T10:11:14.492Z,51.04
2018-05-12T10:12:14.496Z,52.56
2018-05-12T10:13:14.505Z,52.86
2018-05-12T10:14:14.513Z,53.41
2018-05-12T10:15:14.520Z,53.51
2018-05-12T10:16:14.535Z,54.09
2018-05-12T10:17:14.538Z,54.09
2018-05-12T10:18:14.543Z,54.26
2018-05-12T10:19:14.553Z,54.35
2018-05-12T10:20:14.560Z,54.74
2018-05-12T10:21:14.569Z,53.99
2018-05-12T10:22:14.574Z,52.59
2018-05-12T10:23:14.581Z,51.09
2018-05-12T10:24:14.600Z,48.83
2018-05-12T10:25:14.595Z,46.54
2018-05-12T10:26:14.635Z,44.44
2018-05-12T10:27:14.612Z,41.97
2018-05-12T10:28:14.632Z,40.74
2018-05-12T10:29:14.630Z,39.98
2018-05-12T10:30:14.648Z,38.94
2018-05-12T10:31:14.649Z,37.10
2018-05-12T10:32:14.704Z,36.55
2018-05-12T10:33:14.668Z,36.16
2018-05-12T10:34:14.699Z,35.10
2018-05-12T10:35:14.700Z,34.92
2018-05-12T10:36:14.708Z,34.34
2018-05-12T10:37:14.713Z,34.54
2018-05-12T10:38:14.742Z,34.64
2018-05-12T10:39:14.736Z,34.25
2018-05-12T10:40:14.746Z,34.23
2018-05-12T10:41:14.788Z,34.06
2018-05-12T10:42:14.775Z,33.75
2018-05-12T10:43:14.782Z,33.65
2018-05-12T10:44:14.800Z,33.67
2018-05-12T10:45:14.806Z,33.75
2018-05-12T10:46:14.832Z,34.52
2018-05-12T10:47:14.844Z,34.54
2018-05-12T10:48:14.848Z,34.62
2018-05-12T10:49:14.864Z,35.39
2018-05-12T10:50:14.870Z,35.19
2018-05-12T10:51:14.921Z,35.29
2018-05-12T10:52:14.900Z,36.24
2018-05-12T10:53:14.915Z,36.27
2018-05-12T10:54:14.936Z,35.21
2018-05-12T10:55:14.934Z,34.34
2018-05-12T10:56:14.955Z,33.36
2018-05-12T10:57:14.965Z,33.56
2018-05-12T10:58:14.974Z,33.85
2018-05-12T10:59:14.985Z,33.56
2018-05-12T11:00:15.001Z,34.23
2018-05-12T11:01:15.014Z,34.25
2018-05-12T11:02:15.029Z,33.77
2018-05-12T11:03:15.046Z,32.61
2018-05-12T11:04:15.068Z,32.71
2018-05-12T11:05:15.066Z,33.29
2018-05-12T11:06:15.082Z,32.72
2018-05-12T11:07:15.098Z,32.15
2018-05-12T11:08:15.153Z,31.57
2018-05-12T11:09:15.127Z,32.05
2018-05-12T11:10:15.137Z,31.84
2018-05-12T11:11:15.150Z,33.10
2018-05-12T11:12:15.166Z,34.33
2018-05-12T11:13:15.180Z,35.00
2018-05-12T11:14:15.206Z,35.86
2018-05-12T11:15:15.205Z,36.14
2018-05-12T11:16:15.218Z,35.96
2018-05-12T11:17:15.233Z,35.78
2018-05-12T11:18:15.245Z,35.76
2018-05-12T11:19:15.262Z,35.94
2018-05-12T11:20:15.362Z,36.43
2018-05-12T11:21:15.285Z,36.33
2018-05-12T11:22:15.300Z,36.53
2018-05-12T11:23:15.323Z,36.53
2018-05-12T11:24:15.350Z,36.14
2018-05-12T11:25:15.425Z,35.76
2018-05-12T11:26:15.352Z,36.04
2018-05-12T11:27:15.366Z,38.12
2018-05-12T11:28:15.390Z,39.57
2018-05-12T11:29:15.390Z,39.76
2018-05-12T11:30:15.405Z,41.09
2018-05-12T11:31:15.419Z,42.14
2018-05-12T11:32:15.540Z,42.51
2018-05-12T11:33:15.438Z,44.71
2018-05-12T11:34:15.455Z,44.90
2018-05-12T11:35:15.465Z,45.47
2018-05-12T11:36:15.493Z,44.24
2018-05-12T11:37:15.486Z,42.73
2018-05-12T11:38:15.498Z,41.11
2018-05-12T11:39:15.507Z,39.22
2018-05-12T11:40:15.528Z,38.84
2018-05-12T11:41:15.557Z,38.28
2018-05-12T11:42:15.564Z,37.71
2018-05-12T11:43:15.549Z,37.79
2018-05-12T11:44:15.563Z,38.08
2018-05-12T11:45:15.575Z,37.79
2018-05-12T11:46:15.584Z,37.41
2018-05-12T11:47:15.595Z,38.26
2018-05-12T11:48:15.607Z,38.84
2018-05-12T11:49:15.622Z,39.98
2018-05-12T11:50:15.636Z,39.69
2018-05-12T11:51:15.646Z,40.04
2018-05-12T11:52:15.654Z,41.67
2018-05-12T11:53:15.666Z,41.85
2018-05-12T11:54:15.677Z,43.47
2018-05-12T11:55:15.687Z,43.59
2018-05-12T11:56:15.709Z,42.09
2018-05-12T11:57:15.710Z,41.48
2018-05-12T11:58:15.739Z,42.71
2018-05-12T11:59:15.740Z,44.09
2018-05-12T12:00:15.743Z,42.85
2018-05-12T12:01:15.753Z,41.99
2018-05-12T12:02:15.764Z,41.13
2018-05-12T12:03:15.774Z,41.03
2018-05-12T12:04:15.810Z,40.37
2018-05-12T12:05:15.814Z,39.70
2018-05-12T12:06:15.816Z,39.61
2018-05-12T12:07:15.822Z,40.16
2018-05-12T12:08:15.835Z,41.02
2018-05-12T12:09:15.844Z,42.44
2018-05-12T12:10:15.851Z,43.85
2018-05-12T12:11:15.864Z,45.20
2018-05-12T12:12:15.874Z,46.05
2018-05-12T12:13:15.881Z,47.39
2018-05-12T12:14:15.927Z,47.88
2018-05-12T12:15:15.901Z,47.98
2018-05-12T12:16:15.915Z,47.88
2018-05-12T12:17:15.950Z,48.71
2018-05-12T12:18:15.936Z,50.43
2018-05-12T12:19:15.939Z,50.60
2018-05-12T12:20:15.957Z,51.48
2018-05-12T12:21:15.972Z,51.67
2018-05-12T12:22:15.966Z,52.45
2018-05-12T12:23:15.973Z,51.87
2018-05-12T12:24:15.985Z,51.99
2018-05-12T12:25:16.017Z,51.09
2018-05-12T12:26:16.000Z,52.35
2018-05-12T12:27:16.008Z,52.45
2018-05-12T12:28:16.019Z,52.25
2018-05-12T12:29:16.024Z,52.45
2018-05-12T12:30:16.031Z,51.67
2018-05-12T12:31:16.335Z,51.57
2018-05-12T12:32:16.046Z,51.97
2018-05-12T12:33:16.071Z,52.33
2018-05-12T12:34:16.063Z,52.62
2018-05-12T12:35:16.071Z,53.88
2018-05-12T12:36:16.077Z,52.88
2018-05-12T12:37:16.084Z,53.47
2018-05-12T12:38:16.093Z,54.11
2018-05-12T12:39:16.102Z,54.31
2018-05-12T12:40:16.108Z,54.90
2018-05-12T12:41:16.114Z,54.11
2018-05-12T12:42:16.123Z,54.50
2018-05-12T12:43:16.129Z,54.70
2018-05-12T12:44:16.136Z,54.50
2018-05-12T12:45:16.159Z,54.41
2018-05-12T12:46:16.150Z,54.21
2018-05-12T12:47:16.158Z,55.47
2018-05-12T12:48:16.164Z,54.99
2018-05-12T12:49:16.174Z,55.67
2018-05-12T12:50:16.179Z,55.77
2018-05-12T12:51:16.189Z,55.77
2018-05-12T12:52:16.193Z,55.57